sensor_id;sensor_type;location;lat;lon;timestamp;P1;durP1;ratioP1;P2;durP2;ratioP2
7813;SDS011;3952;48.364;16.022;2023-06-22T00:02:21;5.60;;;4.70;;
7813;SDS011;3952;48.364;16.022;2023-06-22T00:04:50;5.70;;;4.37;;
7813;SDS011;3952;48.364;16.022;2023-06-22T00:07:17;6.03;;;4.57;;
7813;SDS011;3952;48.364;16.022;2023-06-22T00:09:44;5.77;;;4.40;;
7813;SDS011;3952;48.364;16.022;2023-06-22T00:12:11;5.03;;;4.57;;
7813;SDS011;3952;48.364;16.022;2023-06-22T00:14:39;5.83;;;4.60;;
7813;SDS011;3952;48.364;16.022;2023-06-22T00:17:06;6.07;;;4.70;;
7813;SDS011;3952;48.364;16.022;2023-06-22T00:19:33;6.13;;;4.43;;
7813;SDS011;3952;48.364;16.022;2023-06-22T00:22:02;9.03;;;4.60;;
7813;SDS011;3952;48.364;16.022;2023-06-22T00:24:29;4.93;;;4.37;;
7813;SDS011;3952;48.364;16.022;2023-06-22T00:26:57;4.67;;;4.00;;
7813;SDS011;3952;48.364;16.022;2023-06-22T00:29:24;8.47;;;4.43;;
7813;SDS011;3952;48.364;16.022;2023-06-22T00:31:51;9.57;;;4.00;;
7813;SDS011;3952;48.364;16.022;2023-06-22T00:34:18;5.90;;;4.50;;
7813;SDS011;3952;48.364;16.022;2023-06-22T00:36:45;6.83;;;4.33;;
7813;SDS011;3952;48.364;16.022;2023-06-22T00:39:14;6.83;;;4.47;;
7813;SDS011;3952;48.364;16.022;2023-06-22T00:41:41;10.33;;;4.40;;
7813;SDS011;3952;48.364;16.022;2023-06-22T00:44:09;4.87;;;3.83;;
7813;SDS011;3952;48.364;16.022;2023-06-22T00:46:36;8.43;;;4.23;;
7813;SDS011;3952;48.364;16.022;2023-06-22T00:49:03;13.27;;;5.17;;
7813;SDS011;3952;48.364;16.022;2023-06-22T00:51:30;8.30;;;4.87;;
7813;SDS011;3952;48.364;16.022;2023-06-22T00:53:58;15.23;;;4.93;;
7813;SDS011;3952;48.364;16.022;2023-06-22T00:56:27;8.97;;;4.53;;
7813;SDS011;3952;48.364;16.022;2023-06-22T00:58:55;11.10;;;4.50;;
7813;SDS011;3952;48.364;16.022;2023-06-22T01:01:23;10.80;;;4.90;;
7813;SDS011;3952;48.364;16.022;2023-06-22T01:03:50;6.30;;;4.90;;
7813;SDS011;3952;48.364;16.022;2023-06-22T01:06:20;6.93;;;4.13;;
7813;SDS011;3952;48.364;16.022;2023-06-22T01:08:54;7.20;;;4.33;;
7813;SDS011;3952;48.364;16.022;2023-06-22T01:11:34;8.30;;;4.40;;
7813;SDS011;3952;48.364;16.022;2023-06-22T01:14:06;7.37;;;4.10;;
7813;SDS011;3952;48.364;16.022;2023-06-22T01:16:40;6.73;;;4.60;;
7813;SDS011;3952;48.364;16.022;2023-06-22T01:19:11;9.30;;;4.40;;
7813;SDS011;3952;48.364;16.022;2023-06-22T01:21:46;7.27;;;4.50;;
7813;SDS011;3952;48.364;16.022;2023-06-22T01:24:17;6.20;;;4.20;;
7813;SDS011;3952;48.364;16.022;2023-06-22T01:26:54;9.50;;;4.33;;
7813;SDS011;3952;48.364;16.022;2023-06-22T01:29:31;6.13;;;4.40;;
7813;SDS011;3952;48.364;16.022;2023-06-22T01:31:59;5.53;;;4.27;;
7813;SDS011;3952;48.364;16.022;2023-06-22T01:34:28;5.13;;;4.60;;
7813;SDS011;3952;48.364;16.022;2023-06-22T01:36:57;5.70;;;4.70;;
7813;SDS011;3952;48.364;16.022;2023-06-22T01:39:26;5.90;;;4.30;;
7813;SDS011;3952;48.364;16.022;2023-06-22T01:41:53;6.30;;;4.47;;
7813;SDS011;3952;48.364;16.022;2023-06-22T01:44:21;5.70;;;3.90;;
7813;SDS011;3952;48.364;16.022;2023-06-22T01:46:50;6.03;;;4.17;;
7813;SDS011;3952;48.364;16.022;2023-06-22T01:49:18;5.37;;;4.83;;
7813;SDS011;3952;48.364;16.022;2023-06-22T01:51:45;5.10;;;4.20;;
7813;SDS011;3952;48.364;16.022;2023-06-22T01:54:12;6.83;;;3.97;;
7813;SDS011;3952;48.364;16.022;2023-06-22T01:56:39;7.10;;;4.70;;
7813;SDS011;3952;48.364;16.022;2023-06-22T01:59:08;11.77;;;4.80;;
7813;SDS011;3952;48.364;16.022;2023-06-22T02:01:41;8.83;;;4.90;;
7813;SDS011;3952;48.364;16.022;2023-06-22T02:04:14;8.83;;;4.47;;
7813;SDS011;3952;48.364;16.022;2023-06-22T02:06:47;5.60;;;4.37;;
7813;SDS011;3952;48.364;16.022;2023-06-22T02:09:21;5.17;;;4.30;;
7813;SDS011;3952;48.364;16.022;2023-06-22T02:11:50;5.10;;;4.57;;
7813;SDS011;3952;48.364;16.022;2023-06-22T02:14:20;7.00;;;4.63;;
7813;SDS011;3952;48.364;16.022;2023-06-22T02:16:48;9.07;;;5.10;;
7813;SDS011;3952;48.364;16.022;2023-06-22T02:19:19;7.30;;;5.53;;
7813;SDS011;3952;48.364;16.022;2023-06-22T02:21:49;8.83;;;5.03;;
7813;SDS011;3952;48.364;16.022;2023-06-22T02:24:17;7.43;;;5.73;;
7813;SDS011;3952;48.364;16.022;2023-06-22T02:26:44;7.57;;;5.13;;
7813;SDS011;3952;48.364;16.022;2023-06-22T02:29:11;8.07;;;5.60;;
7813;SDS011;3952;48.364;16.022;2023-06-22T02:31:38;7.90;;;5.80;;
7813;SDS011;3952;48.364;16.022;2023-06-22T02:34:06;7.33;;;5.97;;
7813;SDS011;3952;48.364;16.022;2023-06-22T02:36:34;8.10;;;5.47;;
7813;SDS011;3952;48.364;16.022;2023-06-22T02:39:01;5.30;;;4.93;;
7813;SDS011;3952;48.364;16.022;2023-06-22T02:41:29;7.70;;;4.50;;
7813;SDS011;3952;48.364;16.022;2023-06-22T02:43:57;5.60;;;5.10;;
7813;SDS011;3952;48.364;16.022;2023-06-22T02:46:24;6.63;;;4.93;;
7813;SDS011;3952;48.364;16.022;2023-06-22T02:48:51;7.03;;;5.00;;
7813;SDS011;3952;48.364;16.022;2023-06-22T02:51:18;6.00;;;4.33;;
7813;SDS011;3952;48.364;16.022;2023-06-22T02:53:47;5.60;;;5.10;;
7813;SDS011;3952;48.364;16.022;2023-06-22T02:56:17;5.70;;;5.07;;
7813;SDS011;3952;48.364;16.022;2023-06-22T02:58:49;9.03;;;4.93;;
7813;SDS011;3952;48.364;16.022;2023-06-22T03:01:17;5.90;;;5.30;;
7813;SDS011;3952;48.364;16.022;2023-06-22T03:03:49;5.00;;;4.43;;
7813;SDS011;3952;48.364;16.022;2023-06-22T03:06:16;9.80;;;5.20;;
7813;SDS011;3952;48.364;16.022;2023-06-22T03:08:50;6.90;;;5.40;;
7813;SDS011;3952;48.364;16.022;2023-06-22T03:11:17;10.27;;;5.00;;
7813;SDS011;3952;48.364;16.022;2023-06-22T03:13:44;4.90;;;4.43;;
7813;SDS011;3952;48.364;16.022;2023-06-22T03:16:12;6.87;;;5.10;;
7813;SDS011;3952;48.364;16.022;2023-06-22T03:18:39;6.60;;;4.77;;
7813;SDS011;3952;48.364;16.022;2023-06-22T03:21:06;7.13;;;4.33;;
7813;SDS011;3952;48.364;16.022;2023-06-22T03:23:33;6.33;;;4.80;;
7813;SDS011;3952;48.364;16.022;2023-06-22T03:26:02;8.30;;;4.87;;
7813;SDS011;3952;48.364;16.022;2023-06-22T03:28:30;7.60;;;5.10;;
7813;SDS011;3952;48.364;16.022;2023-06-22T03:30:57;5.40;;;4.60;;
7813;SDS011;3952;48.364;16.022;2023-06-22T03:33:24;4.57;;;4.17;;
7813;SDS011;3952;48.364;16.022;2023-06-22T03:35:51;7.03;;;4.63;;
7813;SDS011;3952;48.364;16.022;2023-06-22T03:38:19;4.73;;;4.37;;
7813;SDS011;3952;48.364;16.022;2023-06-22T03:40:46;5.30;;;4.80;;
7813;SDS011;3952;48.364;16.022;2023-06-22T03:43:15;5.20;;;4.70;;
7813;SDS011;3952;48.364;16.022;2023-06-22T03:45:42;7.63;;;4.60;;
7813;SDS011;3952;48.364;16.022;2023-06-22T03:48:10;8.83;;;5.30;;
7813;SDS011;3952;48.364;16.022;2023-06-22T03:50:38;5.03;;;4.60;;
7813;SDS011;3952;48.364;16.022;2023-06-22T03:53:05;6.37;;;4.50;;
7813;SDS011;3952;48.364;16.022;2023-06-22T03:55:33;6.80;;;5.10;;
7813;SDS011;3952;48.364;16.022;2023-06-22T03:58:00;11.23;;;5.67;;
7813;SDS011;3952;48.364;16.022;2023-06-22T04:00:32;8.43;;;5.80;;
7813;SDS011;3952;48.364;16.022;2023-06-22T04:02:59;9.00;;;4.80;;
7813;SDS011;3952;48.364;16.022;2023-06-22T04:05:26;5.67;;;5.10;;
7813;SDS011;3952;48.364;16.022;2023-06-22T04:07:53;6.33;;;5.10;;
7813;SDS011;3952;48.364;16.022;2023-06-22T04:10:21;9.50;;;5.50;;
7813;SDS011;3952;48.364;16.022;2023-06-22T04:12:48;10.53;;;5.03;;
7813;SDS011;3952;48.364;16.022;2023-06-22T04:15:15;7.70;;;4.70;;
7813;SDS011;3952;48.364;16.022;2023-06-22T04:17:44;5.60;;;5.00;;
7813;SDS011;3952;48.364;16.022;2023-06-22T04:20:11;8.63;;;5.23;;
7813;SDS011;3952;48.364;16.022;2023-06-22T04:22:38;6.23;;;4.40;;
7813;SDS011;3952;48.364;16.022;2023-06-22T04:25:05;6.43;;;4.73;;
7813;SDS011;3952;48.364;16.022;2023-06-22T04:27:33;6.90;;;4.70;;
7813;SDS011;3952;48.364;16.022;2023-06-22T04:30:02;5.63;;;5.17;;
7813;SDS011;3952;48.364;16.022;2023-06-22T04:32:32;5.77;;;5.00;;
7813;SDS011;3952;48.364;16.022;2023-06-22T04:35:02;8.90;;;5.93;;
7813;SDS011;3952;48.364;16.022;2023-06-22T04:37:31;6.40;;;4.90;;
7813;SDS011;3952;48.364;16.022;2023-06-22T04:39:58;11.20;;;6.07;;
7813;SDS011;3952;48.364;16.022;2023-06-22T04:42:26;9.90;;;5.23;;
7813;SDS011;3952;48.364;16.022;2023-06-22T04:44:53;6.47;;;5.97;;
7813;SDS011;3952;48.364;16.022;2023-06-22T04:47:20;6.50;;;5.57;;
7813;SDS011;3952;48.364;16.022;2023-06-22T04:49:48;8.93;;;6.73;;
7813;SDS011;3952;48.364;16.022;2023-06-22T04:52:16;10.63;;;6.33;;
7813;SDS011;3952;48.364;16.022;2023-06-22T04:54:45;7.33;;;5.73;;
7813;SDS011;3952;48.364;16.022;2023-06-22T04:57:15;6.60;;;6.03;;
7813;SDS011;3952;48.364;16.022;2023-06-22T04:59:42;9.50;;;5.63;;
7813;SDS011;3952;48.364;16.022;2023-06-22T05:02:12;9.77;;;6.83;;
7813;SDS011;3952;48.364;16.022;2023-06-22T05:04:40;8.20;;;6.70;;
7813;SDS011;3952;48.364;16.022;2023-06-22T05:07:07;9.40;;;6.87;;
7813;SDS011;3952;48.364;16.022;2023-06-22T05:09:36;7.57;;;6.90;;
7813;SDS011;3952;48.364;16.022;2023-06-22T05:12:04;7.70;;;6.97;;
7813;SDS011;3952;48.364;16.022;2023-06-22T05:14:33;8.33;;;7.33;;
7813;SDS011;3952;48.364;16.022;2023-06-22T05:17:00;9.97;;;7.60;;
7813;SDS011;3952;48.364;16.022;2023-06-22T05:19:29;12.63;;;7.70;;
7813;SDS011;3952;48.364;16.022;2023-06-22T05:21:58;9.07;;;7.30;;
7813;SDS011;3952;48.364;16.022;2023-06-22T05:27:25;7.23;;;6.57;;
7813;SDS011;3952;48.364;16.022;2023-06-22T05:29:52;7.43;;;6.77;;
7813;SDS011;3952;48.364;16.022;2023-06-22T05:32:20;9.07;;;7.50;;
7813;SDS011;3952;48.364;16.022;2023-06-22T05:34:47;8.67;;;6.70;;
7813;SDS011;3952;48.364;16.022;2023-06-22T05:37:14;14.30;;;7.37;;
7813;SDS011;3952;48.364;16.022;2023-06-22T05:39:41;11.37;;;7.37;;
7813;SDS011;3952;48.364;16.022;2023-06-22T05:42:10;13.53;;;7.57;;
7813;SDS011;3952;48.364;16.022;2023-06-22T05:44:37;11.23;;;7.50;;
7813;SDS011;3952;48.364;16.022;2023-06-22T05:47:06;10.67;;;7.70;;
7813;SDS011;3952;48.364;16.022;2023-06-22T05:49:33;13.40;;;7.80;;
7813;SDS011;3952;48.364;16.022;2023-06-22T05:52:00;11.40;;;8.27;;
7813;SDS011;3952;48.364;16.022;2023-06-22T05:54:27;9.00;;;7.33;;
7813;SDS011;3952;48.364;16.022;2023-06-22T05:56:55;10.63;;;7.37;;
7813;SDS011;3952;48.364;16.022;2023-06-22T05:59:23;23.97;;;7.47;;
7813;SDS011;3952;48.364;16.022;2023-06-22T06:01:51;7.07;;;6.27;;
7813;SDS011;3952;48.364;16.022;2023-06-22T06:04:18;11.37;;;6.97;;
7813;SDS011;3952;48.364;16.022;2023-06-22T06:06:46;8.70;;;7.13;;
7813;SDS011;3952;48.364;16.022;2023-06-22T06:09:13;11.67;;;7.23;;
7813;SDS011;3952;48.364;16.022;2023-06-22T06:11:40;6.83;;;6.23;;
7813;SDS011;3952;48.364;16.022;2023-06-22T06:14:08;11.63;;;7.13;;
7813;SDS011;3952;48.364;16.022;2023-06-22T06:16:36;12.40;;;7.10;;
7813;SDS011;3952;48.364;16.022;2023-06-22T06:19:03;8.98;;;6.97;;
7813;SDS011;3952;48.364;16.022;2023-06-22T06:21:31;8.25;;;6.35;;
7813;SDS011;3952;48.364;16.022;2023-06-22T06:23:58;7.60;;;6.28;;
7813;SDS011;3952;48.364;16.022;2023-06-22T06:26:25;10.05;;;6.20;;
7813;SDS011;3952;48.364;16.022;2023-06-22T06:28:55;5.68;;;5.13;;
7813;SDS011;3952;48.364;16.022;2023-06-22T06:31:22;9.75;;;5.43;;
7813;SDS011;3952;48.364;16.022;2023-06-22T06:33:51;10.20;;;5.50;;
7813;SDS011;3952;48.364;16.022;2023-06-22T06:36:19;6.55;;;5.20;;
7813;SDS011;3952;48.364;16.022;2023-06-22T06:38:46;6.60;;;4.70;;
7813;SDS011;3952;48.364;16.022;2023-06-22T06:41:13;7.50;;;4.85;;
7813;SDS011;3952;48.364;16.022;2023-06-22T06:43:41;5.78;;;4.60;;
7813;SDS011;3952;48.364;16.022;2023-06-22T06:46:09;6.50;;;4.22;;
7813;SDS011;3952;48.364;16.022;2023-06-22T06:48:36;12.63;;;5.10;;
7813;SDS011;3952;48.364;16.022;2023-06-22T06:51:04;10.52;;;5.30;;
7813;SDS011;3952;48.364;16.022;2023-06-22T06:53:34;7.45;;;4.90;;
7813;SDS011;3952;48.364;16.022;2023-06-22T06:56:01;5.35;;;4.38;;
7813;SDS011;3952;48.364;16.022;2023-06-22T06:58:30;9.23;;;4.63;;
7813;SDS011;3952;48.364;16.022;2023-06-22T07:00:57;7.68;;;4.75;;
7813;SDS011;3952;48.364;16.022;2023-06-22T07:03:24;7.88;;;4.15;;
7813;SDS011;3952;48.364;16.022;2023-06-22T07:05:52;5.30;;;4.22;;
7813;SDS011;3952;48.364;16.022;2023-06-22T07:08:20;6.28;;;4.50;;
7813;SDS011;3952;48.364;16.022;2023-06-22T07:10:47;8.48;;;4.53;;
7813;SDS011;3952;48.364;16.022;2023-06-22T07:13:14;4.75;;;4.20;;
7813;SDS011;3952;48.364;16.022;2023-06-22T07:15:42;4.40;;;4.00;;
7813;SDS011;3952;48.364;16.022;2023-06-22T07:18:09;6.22;;;4.53;;
7813;SDS011;3952;48.364;16.022;2023-06-22T07:20:36;7.97;;;4.35;;
7813;SDS011;3952;48.364;16.022;2023-06-22T07:23:04;8.05;;;4.75;;
7813;SDS011;3952;48.364;16.022;2023-06-22T07:25:33;4.68;;;4.28;;
7813;SDS011;3952;48.364;16.022;2023-06-22T07:28:01;4.85;;;4.45;;
7813;SDS011;3952;48.364;16.022;2023-06-22T07:30:29;4.93;;;3.92;;
7813;SDS011;3952;48.364;16.022;2023-06-22T07:32:57;6.07;;;4.00;;
7813;SDS011;3952;48.364;16.022;2023-06-22T07:35:28;6.28;;;3.75;;
7813;SDS011;3952;48.364;16.022;2023-06-22T07:37:55;8.18;;;4.50;;
7813;SDS011;3952;48.364;16.022;2023-06-22T07:40:22;8.68;;;4.35;;
7813;SDS011;3952;48.364;16.022;2023-06-22T07:42:51;7.07;;;4.45;;
7813;SDS011;3952;48.364;16.022;2023-06-22T07:45:18;8.52;;;4.90;;
7813;SDS011;3952;48.364;16.022;2023-06-22T07:47:46;4.32;;;3.97;;
7813;SDS011;3952;48.364;16.022;2023-06-22T07:50:13;6.55;;;4.63;;
7813;SDS011;3952;48.364;16.022;2023-06-22T07:52:40;10.55;;;5.30;;
7813;SDS011;3952;48.364;16.022;2023-06-22T07:55:07;5.40;;;3.78;;
7813;SDS011;3952;48.364;16.022;2023-06-22T07:57:35;4.55;;;4.15;;
7813;SDS011;3952;48.364;16.022;2023-06-22T08:00:04;9.60;;;4.10;;
7813;SDS011;3952;48.364;16.022;2023-06-22T08:02:38;7.32;;;4.45;;
7813;SDS011;3952;48.364;16.022;2023-06-22T08:05:05;6.60;;;4.15;;
7813;SDS011;3952;48.364;16.022;2023-06-22T08:07:33;6.57;;;4.07;;
7813;SDS011;3952;48.364;16.022;2023-06-22T08:10:02;7.80;;;4.32;;
7813;SDS011;3952;48.364;16.022;2023-06-22T08:12:30;5.05;;;4.55;;
7813;SDS011;3952;48.364;16.022;2023-06-22T08:14:57;6.65;;;4.25;;
7813;SDS011;3952;48.364;16.022;2023-06-22T08:17:26;6.30;;;3.92;;
7813;SDS011;3952;48.364;16.022;2023-06-22T08:19:53;7.18;;;4.38;;
7813;SDS011;3952;48.364;16.022;2023-06-22T08:22:20;6.72;;;4.57;;
7813;SDS011;3952;48.364;16.022;2023-06-22T08:24:47;6.63;;;4.47;;
7813;SDS011;3952;48.364;16.022;2023-06-22T08:27:15;6.28;;;4.10;;
7813;SDS011;3952;48.364;16.022;2023-06-22T08:29:44;6.38;;;4.35;;
7813;SDS011;3952;48.364;16.022;2023-06-22T08:32:11;5.05;;;4.32;;
7813;SDS011;3952;48.364;16.022;2023-06-22T08:34:40;13.15;;;4.65;;
7813;SDS011;3952;48.364;16.022;2023-06-22T08:37:08;6.78;;;4.60;;
7813;SDS011;3952;48.364;16.022;2023-06-22T08:39:35;10.60;;;4.68;;
7813;SDS011;3952;48.364;16.022;2023-06-22T08:42:04;7.45;;;4.70;;
7813;SDS011;3952;48.364;16.022;2023-06-22T08:44:32;7.40;;;4.68;;
7813;SDS011;3952;48.364;16.022;2023-06-22T08:46:59;8.40;;;4.43;;
7813;SDS011;3952;48.364;16.022;2023-06-22T08:49:27;7.72;;;4.72;;
7813;SDS011;3952;48.364;16.022;2023-06-22T08:51:56;6.35;;;4.70;;
7813;SDS011;3952;48.364;16.022;2023-06-22T08:54:23;11.18;;;4.97;;
7813;SDS011;3952;48.364;16.022;2023-06-22T08:56:50;7.88;;;5.00;;
7813;SDS011;3952;48.364;16.022;2023-06-22T08:59:18;14.30;;;4.88;;
7813;SDS011;3952;48.364;16.022;2023-06-22T09:01:45;6.13;;;4.55;;
7813;SDS011;3952;48.364;16.022;2023-06-22T09:04:13;7.05;;;4.72;;
7813;SDS011;3952;48.364;16.022;2023-06-22T09:06:41;6.70;;;4.88;;
7813;SDS011;3952;48.364;16.022;2023-06-22T09:09:13;9.90;;;5.25;;
7813;SDS011;3952;48.364;16.022;2023-06-22T09:11:40;8.80;;;4.90;;
7813;SDS011;3952;48.364;16.022;2023-06-22T09:14:08;6.90;;;5.55;;
7813;SDS011;3952;48.364;16.022;2023-06-22T09:16:35;8.20;;;5.35;;
7813;SDS011;3952;48.364;16.022;2023-06-22T09:19:02;8.48;;;4.78;;
7813;SDS011;3952;48.364;16.022;2023-06-22T09:21:29;11.45;;;5.05;;
7813;SDS011;3952;48.364;16.022;2023-06-22T09:23:57;6.63;;;4.95;;
7813;SDS011;3952;48.364;16.022;2023-06-22T09:26:25;8.20;;;4.82;;
7813;SDS011;3952;48.364;16.022;2023-06-22T09:28:53;8.52;;;4.95;;
7813;SDS011;3952;48.364;16.022;2023-06-22T09:31:20;14.13;;;4.85;;
7813;SDS011;3952;48.364;16.022;2023-06-22T09:33:51;9.48;;;4.80;;
7813;SDS011;3952;48.364;16.022;2023-06-22T09:36:19;10.32;;;4.95;;
7813;SDS011;3952;48.364;16.022;2023-06-22T09:38:47;9.07;;;5.57;;
7813;SDS011;3952;48.364;16.022;2023-06-22T09:41:21;11.38;;;5.57;;
7813;SDS011;3952;48.364;16.022;2023-06-22T09:43:49;10.27;;;5.50;;
7813;SDS011;3952;48.364;16.022;2023-06-22T09:46:17;8.80;;;5.25;;
7813;SDS011;3952;48.364;16.022;2023-06-22T09:48:46;9.43;;;5.53;;
7813;SDS011;3952;48.364;16.022;2023-06-22T09:51:14;10.10;;;5.38;;
7813;SDS011;3952;48.364;16.022;2023-06-22T09:53:41;10.25;;;5.32;;
7813;SDS011;3952;48.364;16.022;2023-06-22T09:56:09;10.88;;;5.32;;
7813;SDS011;3952;48.364;16.022;2023-06-22T09:58:39;8.35;;;5.88;;
7813;SDS011;3952;48.364;16.022;2023-06-22T10:01:09;11.57;;;5.10;;
7813;SDS011;3952;48.364;16.022;2023-06-22T10:03:36;12.00;;;5.18;;
7813;SDS011;3952;48.364;16.022;2023-06-22T10:06:03;8.80;;;5.28;;
7813;SDS011;3952;48.364;16.022;2023-06-22T10:08:30;8.88;;;5.43;;
7813;SDS011;3952;48.364;16.022;2023-06-22T10:10:58;6.20;;;5.47;;
7813;SDS011;3952;48.364;16.022;2023-06-22T10:13:25;10.25;;;5.50;;
7813;SDS011;3952;48.364;16.022;2023-06-22T10:15:52;8.10;;;5.05;;
7813;SDS011;3952;48.364;16.022;2023-06-22T10:18:21;7.60;;;4.97;;
7813;SDS011;3952;48.364;16.022;2023-06-22T10:20:49;7.85;;;5.60;;
7813;SDS011;3952;48.364;16.022;2023-06-22T10:23:17;6.95;;;5.60;;
7813;SDS011;3952;48.364;16.022;2023-06-22T10:25:44;6.75;;;5.65;;
7813;SDS011;3952;48.364;16.022;2023-06-22T10:28:12;10.48;;;6.15;;
7813;SDS011;3952;48.364;16.022;2023-06-22T10:30:39;7.40;;;6.05;;
7813;SDS011;3952;48.364;16.022;2023-06-22T10:33:07;8.00;;;5.55;;
7813;SDS011;3952;48.364;16.022;2023-06-22T10:35:36;10.30;;;5.70;;
7813;SDS011;3952;48.364;16.022;2023-06-22T10:38:04;8.73;;;6.30;;
7813;SDS011;3952;48.364;16.022;2023-06-22T10:40:32;10.80;;;5.75;;
7813;SDS011;3952;48.364;16.022;2023-06-22T10:42:59;10.50;;;6.22;;
7813;SDS011;3952;48.364;16.022;2023-06-22T10:45:26;7.53;;;5.38;;
7813;SDS011;3952;48.364;16.022;2023-06-22T10:47:53;6.75;;;6.05;;
7813;SDS011;3952;48.364;16.022;2023-06-22T10:50:21;8.63;;;6.18;;
7813;SDS011;3952;48.364;16.022;2023-06-22T10:52:50;9.80;;;6.40;;
7813;SDS011;3952;48.364;16.022;2023-06-22T10:55:18;7.03;;;6.10;;
7813;SDS011;3952;48.364;16.022;2023-06-22T10:57:45;6.57;;;5.38;;
7813;SDS011;3952;48.364;16.022;2023-06-22T11:00:13;7.28;;;5.75;;
7813;SDS011;3952;48.364;16.022;2023-06-22T11:02:41;11.65;;;5.47;;
7813;SDS011;3952;48.364;16.022;2023-06-22T11:05:09;7.78;;;5.82;;
7813;SDS011;3952;48.364;16.022;2023-06-22T11:07:36;8.68;;;6.32;;
7813;SDS011;3952;48.364;16.022;2023-06-22T11:10:06;13.20;;;6.75;;
7813;SDS011;3952;48.364;16.022;2023-06-22T11:12:34;8.05;;;6.20;;
7813;SDS011;3952;48.364;16.022;2023-06-22T11:15:01;7.85;;;5.72;;
7813;SDS011;3952;48.364;16.022;2023-06-22T11:17:28;9.90;;;6.10;;
7813;SDS011;3952;48.364;16.022;2023-06-22T11:19:55;6.85;;;6.10;;
7813;SDS011;3952;48.364;16.022;2023-06-22T11:22:25;6.85;;;6.15;;
7813;SDS011;3952;48.364;16.022;2023-06-22T11:24:52;7.43;;;6.78;;
7813;SDS011;3952;48.364;16.022;2023-06-22T11:27:21;12.02;;;6.25;;
7813;SDS011;3952;48.364;16.022;2023-06-22T11:29:48;12.43;;;6.00;;
7813;SDS011;3952;48.364;16.022;2023-06-22T11:32:15;10.48;;;5.57;;
7813;SDS011;3952;48.364;16.022;2023-06-22T11:34:42;11.65;;;6.00;;
7813;SDS011;3952;48.364;16.022;2023-06-22T11:37:09;10.45;;;6.55;;
7813;SDS011;3952;48.364;16.022;2023-06-22T11:39:36;9.25;;;6.57;;
7813;SDS011;3952;48.364;16.022;2023-06-22T11:42:04;6.93;;;6.22;;
7813;SDS011;3952;48.364;16.022;2023-06-22T11:44:33;10.00;;;6.28;;
7813;SDS011;3952;48.364;16.022;2023-06-22T11:47:00;11.02;;;6.13;;
7813;SDS011;3952;48.364;16.022;2023-06-22T11:49:29;9.82;;;5.78;;
7813;SDS011;3952;48.364;16.022;2023-06-22T11:51:57;9.50;;;6.57;;
7813;SDS011;3952;48.364;16.022;2023-06-22T11:54:24;7.30;;;6.60;;
7813;SDS011;3952;48.364;16.022;2023-06-22T11:56:51;9.75;;;7.15;;
7813;SDS011;3952;48.364;16.022;2023-06-22T11:59:19;8.70;;;6.80;;
7813;SDS011;3952;48.364;16.022;2023-06-22T12:01:48;8.75;;;6.78;;
7813;SDS011;3952;48.364;16.022;2023-06-22T12:04:16;7.32;;;6.30;;
7813;SDS011;3952;48.364;16.022;2023-06-22T12:06:44;7.20;;;6.40;;
7813;SDS011;3952;48.364;16.022;2023-06-22T12:09:11;14.43;;;6.30;;
7813;SDS011;3952;48.364;16.022;2023-06-22T12:11:39;11.00;;;5.65;;
7813;SDS011;3952;48.364;16.022;2023-06-22T12:14:06;7.35;;;5.70;;
7813;SDS011;3952;48.364;16.022;2023-06-22T12:16:33;6.25;;;5.50;;
7813;SDS011;3952;48.364;16.022;2023-06-22T12:19:02;7.15;;;5.70;;
7813;SDS011;3952;48.364;16.022;2023-06-22T12:21:29;8.02;;;5.03;;
7813;SDS011;3952;48.364;16.022;2023-06-22T12:23:56;8.93;;;5.65;;
7813;SDS011;3952;48.364;16.022;2023-06-22T12:26:23;7.93;;;5.35;;
7813;SDS011;3952;48.364;16.022;2023-06-22T12:28:51;8.50;;;5.32;;
7813;SDS011;3952;48.364;16.022;2023-06-22T12:31:18;9.98;;;5.53;;
7813;SDS011;3952;48.364;16.022;2023-06-22T12:33:45;6.03;;;5.40;;
7813;SDS011;3952;48.364;16.022;2023-06-22T12:36:14;6.97;;;4.90;;
7813;SDS011;3952;48.364;16.022;2023-06-22T12:38:42;6.18;;;4.93;;
7813;SDS011;3952;48.364;16.022;2023-06-22T12:41:09;10.43;;;5.28;;
7813;SDS011;3952;48.364;16.022;2023-06-22T12:43:36;7.05;;;5.00;;
7813;SDS011;3952;48.364;16.022;2023-06-22T12:46:04;6.72;;;5.30;;
7813;SDS011;3952;48.364;16.022;2023-06-22T12:48:31;5.75;;;4.70;;
7813;SDS011;3952;48.364;16.022;2023-06-22T12:50:58;10.88;;;5.05;;
7813;SDS011;3952;48.364;16.022;2023-06-22T12:53:27;6.55;;;5.55;;
7813;SDS011;3952;48.364;16.022;2023-06-22T12:55:54;7.80;;;6.20;;
7813;SDS011;3952;48.364;16.022;2023-06-22T12:58:21;11.02;;;6.25;;
7813;SDS011;3952;48.364;16.022;2023-06-22T13:00:48;9.82;;;5.95;;
7813;SDS011;3952;48.364;16.022;2023-06-22T13:03:15;8.18;;;5.93;;
7813;SDS011;3952;48.364;16.022;2023-06-22T13:05:42;6.85;;;6.10;;
7813;SDS011;3952;48.364;16.022;2023-06-22T13:08:10;7.38;;;6.00;;
7813;SDS011;3952;48.364;16.022;2023-06-22T13:10:38;7.72;;;6.60;;
7813;SDS011;3952;48.364;16.022;2023-06-22T13:13:05;10.93;;;6.60;;
7813;SDS011;3952;48.364;16.022;2023-06-22T13:15:32;8.02;;;6.13;;
7813;SDS011;3952;48.364;16.022;2023-06-22T13:18:00;7.22;;;5.90;;
7813;SDS011;3952;48.364;16.022;2023-06-22T13:20:28;7.30;;;5.68;;
7813;SDS011;3952;48.364;16.022;2023-06-22T13:22:55;6.22;;;5.70;;
7813;SDS011;3952;48.364;16.022;2023-06-22T13:25:22;10.88;;;6.07;;
7813;SDS011;3952;48.364;16.022;2023-06-22T13:27:53;8.98;;;6.07;;
7813;SDS011;3952;48.364;16.022;2023-06-22T13:30:20;9.15;;;5.70;;
7813;SDS011;3952;48.364;16.022;2023-06-22T13:32:47;8.52;;;5.20;;
7813;SDS011;3952;48.364;16.022;2023-06-22T13:35:14;8.60;;;5.40;;
7813;SDS011;3952;48.364;16.022;2023-06-22T13:37:41;9.02;;;5.25;;
7813;SDS011;3952;48.364;16.022;2023-06-22T13:40:09;6.18;;;4.80;;
7813;SDS011;3952;48.364;16.022;2023-06-22T13:42:36;7.80;;;5.22;;
7813;SDS011;3952;48.364;16.022;2023-06-22T13:45:06;7.90;;;4.88;;
7813;SDS011;3952;48.364;16.022;2023-06-22T13:47:34;7.28;;;4.88;;
7813;SDS011;3952;48.364;16.022;2023-06-22T13:50:01;10.57;;;4.75;;
7813;SDS011;3952;48.364;16.022;2023-06-22T13:52:28;5.28;;;4.80;;
7813;SDS011;3952;48.364;16.022;2023-06-22T13:54:55;7.97;;;4.90;;
7813;SDS011;3952;48.364;16.022;2023-06-22T13:57:23;7.13;;;4.57;;
7813;SDS011;3952;48.364;16.022;2023-06-22T13:59:50;6.70;;;4.80;;
7813;SDS011;3952;48.364;16.022;2023-06-22T14:02:18;11.23;;;4.70;;
7813;SDS011;3952;48.364;16.022;2023-06-22T14:04:45;9.07;;;4.82;;
7813;SDS011;3952;48.364;16.022;2023-06-22T14:07:13;6.57;;;4.78;;
7813;SDS011;3952;48.364;16.022;2023-06-22T14:09:40;5.20;;;4.80;;
7813;SDS011;3952;48.364;16.022;2023-06-22T14:12:07;8.27;;;5.10;;
7813;SDS011;3952;48.364;16.022;2023-06-22T14:14:35;7.85;;;4.82;;
7813;SDS011;3952;48.364;16.022;2023-06-22T14:17:03;8.00;;;5.00;;
7813;SDS011;3952;48.364;16.022;2023-06-22T14:19:32;7.53;;;5.20;;
7813;SDS011;3952;48.364;16.022;2023-06-22T14:21:59;6.38;;;5.05;;
7813;SDS011;3952;48.364;16.022;2023-06-22T14:24:26;6.97;;;4.65;;
7813;SDS011;3952;48.364;16.022;2023-06-22T14:26:53;13.77;;;4.90;;
7813;SDS011;3952;48.364;16.022;2023-06-22T14:29:21;8.18;;;5.20;;
7813;SDS011;3952;48.364;16.022;2023-06-22T14:31:48;9.95;;;4.68;;
7813;SDS011;3952;48.364;16.022;2023-06-22T14:34:16;4.80;;;4.40;;
7813;SDS011;3952;48.364;16.022;2023-06-22T14:36:44;8.05;;;4.75;;
7813;SDS011;3952;48.364;16.022;2023-06-22T14:39:11;6.47;;;4.63;;
7813;SDS011;3952;48.364;16.022;2023-06-22T14:41:39;5.97;;;4.95;;
7813;SDS011;3952;48.364;16.022;2023-06-22T14:44:06;6.57;;;4.70;;
7813;SDS011;3952;48.364;16.022;2023-06-22T14:46:33;10.05;;;5.38;;
7813;SDS011;3952;48.364;16.022;2023-06-22T14:49:01;5.63;;;5.00;;
7813;SDS011;3952;48.364;16.022;2023-06-22T14:51:28;7.50;;;5.18;;
7813;SDS011;3952;48.364;16.022;2023-06-22T14:53:57;6.22;;;5.38;;
7813;SDS011;3952;48.364;16.022;2023-06-22T14:56:24;9.15;;;5.10;;
7813;SDS011;3952;48.364;16.022;2023-06-22T14:58:51;6.47;;;5.35;;
7813;SDS011;3952;48.364;16.022;2023-06-22T15:01:18;8.13;;;5.22;;
7813;SDS011;3952;48.364;16.022;2023-06-22T15:03:45;5.85;;;5.20;;
7813;SDS011;3952;48.364;16.022;2023-06-22T15:06:12;9.10;;;5.30;;